createdAt,value
2019-05-02T00:01:13.982Z,24.87
2019-05-02T00:03:43.872Z,24.25
2019-05-02T00:06:14.098Z,27.60
2019-05-02T00:08:43.896Z,25.32
2019-05-02T00:11:13.579Z,24.57
2019-05-02T00:13:43.529Z,24.60
2019-05-02T00:16:14.128Z,24.67
2019-05-02T00:18:44.769Z,24.43
2019-05-02T00:21:14.272Z,26.00
2019-05-02T00:23:43.909Z,24.87
2019-05-02T00:26:13.477Z,25.10
2019-05-02T00:28:47.809Z,27.32
2019-05-02T00:31:14.628Z,28.75
2019-05-02T00:33:44.546Z,27.55
2019-05-02T00:36:14.452Z,28.65
2019-05-02T00:38:44.195Z,27.82
2019-05-02T00:41:14.012Z,26.73
2019-05-02T00:43:43.550Z,26.85
2019-05-02T00:46:13.536Z,27.52
2019-05-02T00:48:54.191Z,26.10
2019-05-02T00:51:26.780Z,27.30
2019-05-02T00:53:56.331Z,27.15
2019-05-02T00:56:25.778Z,26.48
2019-05-02T00:58:55.346Z,27.13
2019-05-02T01:01:30.908Z,27.00
2019-05-02T01:04:10.850Z,27.93
2019-05-02T01:06:40.680Z,27.98
2019-05-02T01:09:11.156Z,27.53
2019-05-02T01:11:40.929Z,28.32
2019-05-02T01:14:10.236Z,26.68
2019-05-02T01:16:39.561Z,27.20
2019-05-02T01:19:12.199Z,25.97
2019-05-02T01:21:40.131Z,26.65
2019-05-02T01:24:09.588Z,27.30
2019-05-02T01:26:40.776Z,27.42
2019-05-02T01:29:11.873Z,28.30
2019-05-02T01:31:55.801Z,26.87
2019-05-02T01:34:38.685Z,27.37
2019-05-02T01:37:20.369Z,25.20
2019-05-02T01:39:44.091Z,27.30
2019-05-02T01:42:13.418Z,37.05
2019-05-02T01:44:42.668Z,51.45
2019-05-02T01:47:12.571Z,65.45
2019-05-02T01:49:41.844Z,84.25
2019-05-02T01:52:11.191Z,86.85
2019-05-02T01:54:40.761Z,88.42
2019-05-02T01:57:11.467Z,88.60
2019-05-02T01:59:40.758Z,81.78
2019-05-02T02:02:10.191Z,74.00
2019-05-02T02:04:39.477Z,54.13
2019-05-02T02:07:08.848Z,40.78
2019-05-02T02:09:38.770Z,35.55
2019-05-02T02:12:11.287Z,31.80
2019-05-02T02:14:40.725Z,31.17
2019-05-02T02:17:15.588Z,30.60
2019-05-02T02:19:43.096Z,29.18
2019-05-02T02:22:19.971Z,31.42
2019-05-02T02:24:50.875Z,31.60
2019-05-02T02:27:24.542Z,32.30
2019-05-02T02:29:51.263Z,31.60
2019-05-02T02:32:27.127Z,31.97
2019-05-02T02:34:51.715Z,32.15
2019-05-02T02:37:21.182Z,33.53
2019-05-02T02:39:54.098Z,34.13
2019-05-02T02:42:25.000Z,32.17
2019-05-02T02:49:55.945Z,31.17
2019-05-02T02:52:23.962Z,30.27
2019-05-02T02:54:53.630Z,32.60
2019-05-02T02:57:27.959Z,34.60
2019-05-02T03:00:06.752Z,32.80
2019-05-02T03:02:25.168Z,34.85
2019-05-02T03:04:54.394Z,35.10
2019-05-02T03:07:25.815Z,32.88
2019-05-02T03:09:59.709Z,33.63
2019-05-02T03:12:27.592Z,35.17
2019-05-02T03:14:58.692Z,32.75
2019-05-02T03:17:28.799Z,33.60
2019-05-02T03:20:01.558Z,34.35
2019-05-02T03:22:34.851Z,32.60
2019-05-02T03:25:00.728Z,36.30
2019-05-02T03:29:59.061Z,37.03
2019-05-02T03:32:34.667Z,36.68
2019-05-02T03:34:59.687Z,34.25
2019-05-02T03:37:28.988Z,35.20
2019-05-02T03:40:00.646Z,36.00
2019-05-02T03:42:29.269Z,37.83
2019-05-02T03:45:04.304Z,36.55
2019-05-02T03:47:29.640Z,39.55
2019-05-02T03:49:59.073Z,37.78
2019-05-02T03:52:28.734Z,36.45
2019-05-02T03:54:58.380Z,35.83
2019-05-02T03:57:33.588Z,37.40
2019-05-02T03:59:59.049Z,38.00
2019-05-02T04:02:28.840Z,38.28
2019-05-02T04:05:00.389Z,39.55
2019-05-02T04:07:39.795Z,38.20
2019-05-02T04:10:01.777Z,41.35
2019-05-02T04:12:32.937Z,41.10
2019-05-02T04:15:02.306Z,43.25
2019-05-02T04:17:35.400Z,44.10
2019-05-02T04:20:09.674Z,44.67
2019-05-02T04:22:43.000Z,42.38
2019-05-02T04:25:07.718Z,44.53
2019-05-02T04:27:37.292Z,40.50
2019-05-02T04:30:11.224Z,44.07
2019-05-02T04:32:42.740Z,39.85
2019-05-02T04:35:10.077Z,42.67
2019-05-02T04:37:41.193Z,41.37
2019-05-02T04:40:12.343Z,40.05
2019-05-02T04:42:41.549Z,39.53
2019-05-02T04:45:24.153Z,41.90
2019-05-02T04:47:42.579Z,40.38
2019-05-02T04:56:07.144Z,36.40
2019-05-02T05:28:58.391Z,34.15
2019-05-02T05:36:50.426Z,34.75
2019-05-02T05:42:30.149Z,37.73
2019-05-02T05:45:03.791Z,38.20
2019-05-02T05:52:43.377Z,39.85
2019-05-02T05:55:20.599Z,40.03
2019-05-02T05:57:47.601Z,40.58
2019-05-02T06:00:22.979Z,38.42
2019-05-02T06:02:56.205Z,42.62
2019-05-02T06:05:24.242Z,38.92
2019-05-02T06:07:57.530Z,39.67
2019-05-02T06:10:46.929Z,38.33
2019-05-02T06:13:16.340Z,41.13
2019-05-02T06:15:46.238Z,40.95
2019-05-02T06:18:16.328Z,42.48
2019-05-02T06:20:45.614Z,42.25
2019-05-02T06:23:15.500Z,42.48
2019-05-02T06:25:45.308Z,41.00
2019-05-02T06:37:22.203Z,39.23
2019-05-02T06:51:57.591Z,38.48
2019-05-02T06:54:28.769Z,40.43
2019-05-02T06:57:13.007Z,41.30
2019-05-02T06:59:42.562Z,38.80
2019-05-02T07:02:12.261Z,41.75
2019-05-02T07:04:43.090Z,41.15
2019-05-02T07:07:14.441Z,41.28
2019-05-02T07:09:45.551Z,41.55
2019-05-02T08:07:38.358Z,38.45
2019-05-02T08:10:08.263Z,35.40
2019-05-02T08:12:38.280Z,37.95
2019-05-02T08:15:13.201Z,35.85
2019-05-02T08:17:41.629Z,36.03
2019-05-02T08:22:43.987Z,34.05
2019-05-02T08:25:12.853Z,33.80
2019-05-02T08:27:53.867Z,35.52
2019-05-02T08:30:24.859Z,34.53
2019-05-02T08:32:55.744Z,32.85
2019-05-02T08:38:37.208Z,35.50
2019-05-02T08:41:07.950Z,33.02
2019-05-02T08:51:50.244Z,34.65
2019-05-02T08:57:29.951Z,31.35
2019-05-02T09:00:02.782Z,32.15
2019-05-02T09:14:03.866Z,31.07
2019-05-02T09:16:36.147Z,32.60
2019-05-02T09:22:25.643Z,33.23
2019-05-02T09:27:52.663Z,34.60
2019-05-02T09:30:42.531Z,33.20
2019-05-02T09:38:12.983Z,35.00
2019-05-02T09:51:17.334Z,33.58
2019-05-02T10:02:04.393Z,34.18
2019-05-02T10:04:34.252Z,34.38
2019-05-02T10:07:04.583Z,33.70
2019-05-02T10:15:42.138Z,33.55
2019-05-02T11:23:24.813Z,45.73
2019-05-02T11:26:04.779Z,45.25
2019-05-02T11:31:37.996Z,44.53
2019-05-02T11:39:53.495Z,46.00
2019-05-02T11:49:25.168Z,46.53
2019-05-02T11:57:54.544Z,41.48
2019-05-02T12:21:34.159Z,44.58
2019-05-02T12:31:47.183Z,41.70
2019-05-02T12:34:19.021Z,45.30
2019-05-02T12:36:48.890Z,47.03
2019-05-02T12:39:19.265Z,47.53
2019-05-02T13:57:05.116Z,14.65
2019-05-02T13:59:36.250Z,14.13
2019-05-02T14:10:44.742Z,10.80
2019-05-02T14:16:02.390Z,20.02
2019-05-02T14:18:33.629Z,14.73
2019-05-02T14:21:02.891Z,12.98
2019-05-02T14:23:32.207Z,12.37
2019-05-02T14:26:02.157Z,11.97
2019-05-02T14:28:36.086Z,12.88
2019-05-02T14:31:03.495Z,12.60
2019-05-02T14:33:35.257Z,12.50
2019-05-02T14:36:05.123Z,13.05
2019-05-02T14:41:12.450Z,12.13
2019-05-02T14:43:53.851Z,12.65
2019-05-02T14:46:29.022Z,12.43
2019-05-02T14:48:56.834Z,13.08
2019-05-02T14:51:27.899Z,13.90
2019-05-02T14:54:03.753Z,13.22
2019-05-02T14:59:02.816Z,17.60
2019-05-02T15:04:22.643Z,17.37
2019-05-02T15:06:52.649Z,19.12
2019-05-02T15:09:26.837Z,19.00
2019-05-02T15:14:30.140Z,18.75
2019-05-02T15:17:00.034Z,18.10
2019-05-02T15:19:30.058Z,16.80
2019-05-02T15:21:59.520Z,16.85
2019-05-02T15:26:58.015Z,17.12
2019-05-02T15:29:27.578Z,17.50
2019-05-02T15:32:07.225Z,17.03
2019-05-02T15:34:46.312Z,18.40
2019-05-02T15:44:37.384Z,18.52
2019-05-02T15:47:07.154Z,18.73
2019-05-02T15:49:41.695Z,19.45
2019-05-02T15:52:12.469Z,19.48
2019-05-02T15:54:42.595Z,20.57
2019-05-02T15:57:12.934Z,20.65
2019-05-02T15:59:46.124Z,21.87
2019-05-02T16:02:22.896Z,22.42
2019-05-02T16:04:49.656Z,20.37
2019-05-02T16:07:19.114Z,22.63
2019-05-02T16:09:51.518Z,21.97
2019-05-02T16:15:18.112Z,21.62
2019-05-02T16:17:42.222Z,19.35
2019-05-02T16:20:14.102Z,20.37
2019-05-02T16:22:49.249Z,18.37
2019-05-02T16:25:14.605Z,19.30
2019-05-02T16:27:45.664Z,19.50
2019-05-02T16:30:17.516Z,16.05
2019-05-02T16:32:48.365Z,13.95
2019-05-02T16:35:19.403Z,14.43
2019-05-02T16:37:52.334Z,14.45
2019-05-02T16:40:22.150Z,13.68
2019-05-02T16:42:51.872Z,12.28
2019-05-02T16:45:22.211Z,11.43
2019-05-02T16:47:58.675Z,11.80
2019-05-02T16:50:23.010Z,8.00
2019-05-02T16:52:53.088Z,8.10
2019-05-02T16:55:26.533Z,6.15
2019-05-02T16:57:56.864Z,6.87
2019-05-02T17:00:25.712Z,5.65
2019-05-02T17:02:54.912Z,6.45
2019-05-02T17:05:24.247Z,5.35
2019-05-02T17:08:10.574Z,5.30
2019-05-02T17:10:39.712Z,4.50
2019-05-02T17:13:09.099Z,4.25
2019-05-02T17:15:38.566Z,4.90
2019-05-02T17:18:18.070Z,4.95
2019-05-02T17:20:38.977Z,4.30
2019-05-02T17:23:08.361Z,3.77
2019-05-02T17:25:37.672Z,3.45
2019-05-02T17:28:10.372Z,4.30
2019-05-02T17:30:45.104Z,4.58
2019-05-02T17:33:17.555Z,4.28
2019-05-02T17:35:53.614Z,3.90
2019-05-02T17:38:27.668Z,4.65
2019-05-02T17:40:54.353Z,4.62
2019-05-02T17:43:23.183Z,4.67
2019-05-02T17:45:52.783Z,4.95
2019-05-02T17:48:22.140Z,4.12
2019-05-02T17:50:59.548Z,5.40
2019-05-02T17:53:33.607Z,4.95
2019-05-02T17:56:01.883Z,5.12
2019-05-02T17:58:33.838Z,5.45
2019-05-02T18:01:04.418Z,4.67
2019-05-02T18:03:35.349Z,4.95
2019-05-02T18:06:07.564Z,4.65
2019-05-02T18:08:36.177Z,5.47
2019-05-02T18:11:05.659Z,5.45
2019-05-02T18:13:35.521Z,5.55
2019-05-02T18:16:07.845Z,4.92
2019-05-02T18:18:37.453Z,5.35
2019-05-02T18:21:08.376Z,4.72
2019-05-02T18:23:37.794Z,4.60
2019-05-02T18:26:07.105Z,4.58
2019-05-02T18:28:46.147Z,4.40
2019-05-02T18:31:07.903Z,4.08
2019-05-02T18:33:41.320Z,4.00
2019-05-02T18:36:08.713Z,3.83
2019-05-02T18:38:38.058Z,3.67
2019-05-02T18:41:08.007Z,3.35
2019-05-02T18:43:41.483Z,3.42
2019-05-02T18:46:09.034Z,3.37
2019-05-02T18:48:42.149Z,3.50
2019-05-02T18:51:09.440Z,3.10
2019-05-02T18:53:38.800Z,3.52
2019-05-02T18:56:08.192Z,3.90
2019-05-02T18:58:41.337Z,4.50
2019-05-02T19:01:14.070Z,4.28
2019-05-02T19:03:39.922Z,4.22
2019-05-02T19:06:11.566Z,4.85
2019-05-02T19:08:46.559Z,4.08
2019-05-02T19:11:13.175Z,4.85
2019-05-02T19:13:44.189Z,3.72
2019-05-02T19:16:13.908Z,4.35
2019-05-02T19:18:43.441Z,3.92
2019-05-02T19:21:12.919Z,3.30
2019-05-02T19:23:42.631Z,4.42
2019-05-02T19:26:14.670Z,4.65
2019-05-02T19:28:45.007Z,4.97
2019-05-02T19:31:17.366Z,4.78
2019-05-02T19:33:46.999Z,5.83
2019-05-02T19:36:27.451Z,6.20
2019-05-02T19:38:52.575Z,5.65
2019-05-02T19:41:22.406Z,6.40
2019-05-02T19:43:56.326Z,5.37
2019-05-02T19:49:22.408Z,4.22
2019-05-02T19:51:58.306Z,4.53
2019-05-02T19:54:33.554Z,5.08
2019-05-02T19:59:57.126Z,4.60
2019-05-02T20:02:29.084Z,4.53
2019-05-02T20:07:27.195Z,4.33
2019-05-02T20:09:56.898Z,3.72
2019-05-02T20:12:26.267Z,4.37
2019-05-02T20:14:56.174Z,3.95
2019-05-02T20:17:25.571Z,4.80
2019-05-02T20:19:57.901Z,4.58
2019-05-02T20:22:28.077Z,4.83
2019-05-02T20:25:03.074Z,4.40
2019-05-02T20:29:58.651Z,4.47
2019-05-02T20:32:28.387Z,4.78
2019-05-02T20:34:58.117Z,4.83
2019-05-02T20:37:27.584Z,4.90
2019-05-02T20:39:57.365Z,4.72
2019-05-02T20:42:26.806Z,5.42
2019-05-02T20:44:56.168Z,5.10
2019-05-02T20:47:25.903Z,4.60
2019-05-02T20:49:55.416Z,4.10
2019-05-02T20:52:25.405Z,7.08
2019-05-02T20:54:55.029Z,4.80
2019-05-02T20:57:24.464Z,5.70
2019-05-02T21:02:22.985Z,4.83
2019-05-02T21:04:52.655Z,5.78
2019-05-02T21:07:29.430Z,5.03
2019-05-02T21:10:01.938Z,5.30
2019-05-02T21:12:31.344Z,5.65
2019-05-02T21:15:01.745Z,4.70
2019-05-02T21:17:32.736Z,5.03
2019-05-02T21:20:02.385Z,4.03
2019-05-02T21:22:32.754Z,4.30
2019-05-02T21:25:02.544Z,3.50
2019-05-02T21:27:32.498Z,3.80
2019-05-02T21:30:02.494Z,3.87
2019-05-02T21:32:32.186Z,4.05
2019-05-02T21:35:02.751Z,4.37
2019-05-02T21:40:02.743Z,4.28
2019-05-02T21:42:32.346Z,4.25
2019-05-02T21:45:02.406Z,4.45
2019-05-02T21:47:32.382Z,3.83
2019-05-02T21:50:03.448Z,4.12
2019-05-02T21:52:43.369Z,3.90
2019-05-02T21:55:29.145Z,4.15
2019-05-02T21:57:59.356Z,3.75
2019-05-02T22:00:33.437Z,4.20
2019-05-02T22:03:02.797Z,4.70
2019-05-02T22:05:32.087Z,4.53
2019-05-02T22:08:02.964Z,5.30
2019-05-02T22:10:32.519Z,5.30
2019-05-02T22:13:02.536Z,5.97
2019-05-02T22:15:32.526Z,6.10
2019-05-02T22:18:02.287Z,7.22
2019-05-02T22:20:32.063Z,6.90
2019-05-02T22:23:02.400Z,7.55
2019-05-02T22:25:32.710Z,9.73
2019-05-02T22:28:02.098Z,7.75
2019-05-02T22:30:32.296Z,7.95
2019-05-02T22:33:02.793Z,8.25
2019-05-02T22:38:03.200Z,7.92
2019-05-02T22:40:32.750Z,7.80
2019-05-02T22:43:04.552Z,6.50
2019-05-02T22:45:33.752Z,6.72
2019-05-02T22:48:02.978Z,6.35
2019-05-02T22:50:32.580Z,6.03
2019-05-02T22:53:02.074Z,6.57
2019-05-02T22:55:32.004Z,6.03
2019-05-02T22:58:02.330Z,6.20
2019-05-02T23:00:33.395Z,5.62
2019-05-02T23:03:02.963Z,5.28
2019-05-02T23:05:34.386Z,5.65
2019-05-02T23:08:03.851Z,5.85
2019-05-02T23:10:33.337Z,5.70
2019-05-02T23:13:02.739Z,5.35
2019-05-02T23:15:32.241Z,5.78
2019-05-02T23:18:01.986Z,4.95
2019-05-02T23:20:32.885Z,5.20
2019-05-02T23:23:02.330Z,5.60
2019-05-02T23:25:51.944Z,5.37
2019-05-02T23:28:24.345Z,5.22
2019-05-02T23:30:53.779Z,5.90
2019-05-02T23:33:25.035Z,6.10
2019-05-02T23:35:54.487Z,5.92
2019-05-02T23:38:24.069Z,5.22
2019-05-02T23:40:53.715Z,5.30
2019-05-02T23:43:23.537Z,5.70
2019-05-02T23:45:53.531Z,5.28
2019-05-02T23:48:23.031Z,5.10
2019-05-02T23:50:52.806Z,5.47
2019-05-02T23:53:22.390Z,5.85
2019-05-02T23:55:51.752Z,5.45
2019-05-02T23:58:22.616Z,5.12
